Time;durP1;ratioP1;P1;durP2;ratioP2;P2;SDS_P1;SDS_P2;PMS_P1;PMS_P2;Temp;Humidity;BMP_temperature;BMP_pressure;BME280_temperature;BME280_humidity;BME280_pressure;Samples;Min_cycle;Max_cycle;Signal;HPM_P1;HPM_P2
2021/04/26 00:00:20;;;;;;;;;;;;;;;19.89;40.94;101953.97;2085768;28;4103;-72
2021/04/26 00:01:21;;;;;;;;;;;;;;;19.89;41.04;101945.44;2085220;28;4053;-72
2021/04/26 00:02:23;;;;;;;;;;;;;;;19.90;41.09;101949.13;2085876;28;4031;-71
2021/04/26 00:03:23;;;;;;;;;;;;;;;19.89;41.06;101951.13;2085568;28;3823;-72
2021/04/26 00:04:24;;;;;;;;;;;;;;;19.90;41.03;101949.97;2085456;28;4057;-71
2021/04/26 00:05:25;;;;;;;;;;;;;;;19.90;41.11;101946.28;2084864;28;4011;-71
2021/04/26 00:06:26;;;;;;;;;;;;;;;19.89;41.05;101945.44;2085973;28;3833;-71
2021/04/26 00:07:27;;;;;;;;;;;;;;;19.90;41.22;101940.59;2085440;28;4015;-70
2021/04/26 00:08:27;;;;;;;;;;;;;;;19.90;41.10;101947.13;2085099;28;3989;-71
2021/04/26 00:09:28;;;;;;;;;;;;;;;19.89;41.06;101939.78;2085085;28;4252;-71
2021/04/26 00:10:29;;;;;;;;;;;;;;;19.90;41.13;101946.28;2085650;28;3995;-71
2021/04/26 00:11:30;;;;;;;;;;;;;;;19.90;41.02;101944.28;2085497;28;3995;-71
2021/04/26 00:12:31;;;;;;;;;;;;;;;19.89;41.09;101944.63;2086766;28;4318;-71
2021/04/26 00:13:45;;;;;;;;;;;;;;;19.90;41.13;101946.28;2084780;28;3814;-71
2021/04/26 00:14:46;;;;;;;;;;;;;;;19.89;41.11;101948.28;2085360;28;4006;-73
2021/04/26 00:15:46;;;;;;;;;;;;;;;19.90;41.19;101949.97;2085734;28;4022;-71
2021/04/26 00:16:47;;;;;;;;;;;;;;;19.91;41.27;101954.50;2085816;28;4018;-71
2021/04/26 00:17:48;;;;;;;;;;;;;;;19.89;41.12;101939.78;2085536;28;4051;-72
2021/04/26 00:18:49;;;;;;;;;;;;;;;19.91;41.28;101948.00;2085698;28;3891;-71
2021/04/26 00:19:50;;;;;;;;;;;;;;;19.90;41.26;101941.44;2083955;28;4137;-71
2021/04/26 00:20:50;;;;;;;;;;;;;;;19.90;41.24;101947.13;2085511;28;3989;-71
2021/04/26 00:21:51;;;;;;;;;;;;;;;19.91;41.25;101943.16;2085566;28;3847;-71
2021/04/26 00:22:52;;;;;;;;;;;;;;;19.91;41.19;101937.47;2085333;28;3891;-71
2021/04/26 00:23:53;;;;;;;;;;;;;;;19.91;41.16;101934.63;2085190;28;4042;-71
2021/04/26 00:24:54;;;;;;;;;;;;;;;19.91;41.35;101939.47;2085678;28;5167;-72
2021/04/26 00:25:55;;;;;;;;;;;;;;;19.91;41.27;101942.31;2085522;28;4001;-71
2021/04/26 00:26:55;;;;;;;;;;;;;;;19.90;41.16;101935.75;2085830;28;4329;-71
2021/04/26 00:27:56;;;;;;;;;;;;;;;19.91;41.29;101942.31;2085281;28;3889;-71
2021/04/26 00:28:57;;;;;;;;;;;;;;;19.91;41.37;101931.78;2085447;28;3987;-71
2021/04/26 00:29:57;;;;;;;;;;;;;;;19.91;41.30;101934.63;2085417;28;3981;-70
2021/04/26 00:30:58;;;;;;;;;;;;;;;19.90;41.41;101932.91;2085573;28;4004;-72
2021/04/26 00:31:59;;;;;;;;;;;;;;;19.91;41.29;101939.47;2084761;28;3963;-72
2021/04/26 00:33:00;;;;;;;;;;;;;;;19.90;41.31;101930.06;2086326;28;3749;-72
2021/04/26 00:34:01;;;;;;;;;;;;;;;19.91;41.42;101925.25;2085469;28;3978;-72
2021/04/26 00:35:02;;;;;;;;;;;;;;;19.91;41.48;101931.78;2085661;28;5255;-72
2021/04/26 00:36:03;;;;;;;;;;;;;;;19.91;41.40;101937.47;2085037;28;3995;-72
2021/04/26 00:37:03;;;;;;;;;;;;;;;19.90;41.40;101924.41;2085742;28;4014;-74
2021/04/26 00:38:04;;;;;;;;;;;;;;;19.91;41.50;101930.94;2085169;28;4065;-74
2021/04/26 00:39:05;;;;;;;;;;;;;;;19.91;41.35;101931.78;2085850;28;4006;-73
2021/04/26 00:40:06;;;;;;;;;;;;;;;19.91;41.58;101928.94;2085216;28;3996;-73
2021/04/26 00:41:07;;;;;;;;;;;;;;;19.91;41.51;101930.94;2084590;28;4014;-72
2021/04/26 00:42:07;;;;;;;;;;;;;;;19.92;41.56;101930.59;2084963;28;4899;-72
2021/04/26 00:43:08;;;;;;;;;;;;;;;19.91;41.53;101926.09;2085371;28;5140;-72
2021/04/26 00:44:09;;;;;;;;;;;;;;;19.91;41.56;101920.41;2084132;28;5317;-70
2021/04/26 00:45:10;;;;;;;;;;;;;;;19.92;41.59;101922.09;2084436;28;4013;-70
2021/04/26 00:46:12;;;;;;;;;;;;;;;19.93;41.49;101914.41;2085340;28;4097;-70
2021/04/26 00:47:13;;;;;;;;;;;;;;;19.92;41.60;101918.41;2084815;28;4061;-70
2021/04/26 00:48:13;;;;;;;;;;;;;;;19.92;41.52;101918.41;2085342;28;3904;-70
2021/04/26 00:49:14;;;;;;;;;;;;;;;19.91;41.61;101911.91;2085644;28;4186;-71
2021/04/26 00:50:15;;;;;;;;;;;;;;;19.91;41.67;101914.75;2085692;28;5110;-70
2021/04/26 00:51:16;;;;;;;;;;;;;;;19.92;41.66;101907.88;2084767;28;3855;-70
2021/04/26 00:52:16;;;;;;;;;;;;;;;19.92;41.66;101907.88;2085535;28;4159;-71
2021/04/26 00:53:17;;;;;;;;;;;;;;;19.91;41.65;101911.91;2085235;28;3862;-72
2021/04/26 00:54:18;;;;;;;;;;;;;;;19.92;41.59;101907.88;2085336;28;3999;-72
2021/04/26 00:55:18;;;;;;;;;;;;;;;19.92;41.63;101901.38;2084889;28;3836;-73
2021/04/26 00:56:19;;;;;;;;;;;;;;;19.93;41.63;101901.06;2085412;28;4067;-72
2021/04/26 00:57:20;;;;;;;;;;;;;;;19.93;41.69;101906.75;2084756;28;5361;-72
2021/04/26 00:58:21;;;;;;;;;;;;;;;19.93;41.77;101906.75;2085236;28;3873;-71
2021/04/26 00:59:21;;;;;;;;;;;;;;;19.93;41.70;101906.75;2085007;28;3960;-71
2021/04/26 01:00:22;;;;;;;;;;;;;;;19.93;41.75;101900.19;2084649;28;3854;-71
2021/04/26 01:01:23;;;;;;;;;;;;;;;19.93;41.87;101900.19;2084876;28;3906;-71
2021/04/26 01:02:24;;;;;;;;;;;;;;;19.93;41.66;101900.19;2085337;28;3832;-70
2021/04/26 01:03:25;;;;;;;;;;;;;;;19.93;41.71;101903.91;2084686;28;3942;-69
2021/04/26 01:04:26;;;;;;;;;;;;;;;19.93;41.80;101897.34;2084733;28;4002;-69
2021/04/26 01:05:27;;;;;;;;;;;;;;;19.91;41.84;101892.03;2085547;28;3854;-69
2021/04/26 01:06:28;;;;;;;;;;;;;;;19.92;41.83;101893.69;2085424;28;3958;-70
2021/04/26 01:07:29;;;;;;;;;;;;;;;19.93;41.89;101888.84;2085555;28;3818;-71
2021/04/26 01:08:29;;;;;;;;;;;;;;;19.93;41.97;101895.38;2085021;28;3969;-70
2021/04/26 01:09:30;;;;;;;;;;;;;;;19.93;42.00;101889.72;2084791;28;3950;-70
2021/04/26 01:10:31;;;;;;;;;;;;;;;19.92;41.96;101893.69;2085184;28;4017;-70
2021/04/26 01:11:32;;;;;;;;;;;;;;;19.91;41.88;101886.34;2084396;28;3975;-70
2021/04/26 01:12:32;;;;;;;;;;;;;;;19.93;41.97;101886.00;2085219;28;3804;-70
2021/04/26 01:13:33;;;;;;;;;;;;;;;19.93;42.02;101886.88;2084939;28;3795;-70
2021/04/26 01:14:34;;;;;;;;;;;;;;;19.93;41.89;101883.16;2084615;28;3981;-70
2021/04/26 01:15:35;;;;;;;;;;;;;;;19.93;41.92;101886.00;2085152;28;5100;-70
2021/04/26 01:16:35;;;;;;;;;;;;;;;19.93;41.92;101884.03;2085023;28;3957;-70
2021/04/26 01:17:36;;;;;;;;;;;;;;;19.93;41.86;101889.72;2085113;28;4012;-70
2021/04/26 01:18:37;;;;;;;;;;;;;;;19.94;41.99;101887.69;2083675;28;3957;-70
2021/04/26 01:19:38;;;;;;;;;;;;;;;19.93;41.84;101886.00;2084781;28;3933;-70
2021/04/26 01:20:38;;;;;;;;;;;;;;;19.93;41.90;101880.31;2085321;28;3984;-70
2021/04/26 01:21:39;;;;;;;;;;;;;;;19.92;41.94;101888.00;2085032;28;3919;-70
2021/04/26 01:22:40;;;;;;;;;;;;;;;19.92;41.85;101888.00;2084642;28;3971;-70
2021/04/26 01:23:41;;;;;;;;;;;;;;;19.93;41.92;101886.00;2085473;28;5089;-70
2021/04/26 01:24:41;;;;;;;;;;;;;;;19.93;42.05;101883.16;2084855;28;4104;-70
2021/04/26 01:25:42;;;;;;;;;;;;;;;19.93;41.96;101880.31;2085364;28;4231;-70
2021/04/26 01:26:43;;;;;;;;;;;;;;;19.93;41.84;101884.03;2083761;28;4429;-70
2021/04/26 01:27:44;;;;;;;;;;;;;;;19.93;42.08;101880.31;2083051;28;3989;-70
2021/04/26 01:28:44;;;;;;;;;;;;;;;19.92;41.94;101882.31;2082308;28;3996;-69
2021/04/26 01:29:45;;;;;;;;;;;;;;;19.93;41.81;101872.66;2083151;28;4115;-69
2021/04/26 01:30:46;;;;;;;;;;;;;;;19.93;41.99;101878.34;2082947;28;5249;-70
2021/04/26 01:31:46;;;;;;;;;;;;;;;19.93;41.93;101877.47;2082448;28;4224;-70
2021/04/26 01:32:47;;;;;;;;;;;;;;;19.93;42.03;101868.97;2084326;28;4010;-70
2021/04/26 01:33:48;;;;;;;;;;;;;;;19.93;41.86;101875.50;2084828;28;3909;-69
2021/04/26 01:34:49;;;;;;;;;;;;;;;19.93;41.90;101871.81;2085199;28;4037;-70
2021/04/26 01:35:50;;;;;;;;;;;;;;;19.92;41.95;101870.13;2085037;28;3922;-70
2021/04/26 01:36:51;;;;;;;;;;;;;;;19.93;42.07;101866.97;2084643;28;4077;-69
2021/04/26 01:37:52;;;;;;;;;;;;;;;19.94;42.03;101873.50;2085093;28;3844;-69
2021/04/26 01:38:52;;;;;;;;;;;;;;;19.93;41.97;101872.66;2084769;28;3992;-71
2021/04/26 01:39:53;;;;;;;;;;;;;;;19.94;42.08;101876.34;2085214;28;4087;-71
2021/04/26 01:40:54;;;;;;;;;;;;;;;19.94;42.05;101874.34;2085422;28;4016;-71
2021/04/26 01:41:55;;;;;;;;;;;;;;;19.94;42.08;101880.00;2084793;28;4062;-71
2021/04/26 01:42:56;;;;;;;;;;;;;;;19.94;42.11;101874.34;2085020;28;3894;-71
2021/04/26 01:43:56;;;;;;;;;;;;;;;19.94;42.00;101876.34;2084424;28;4090;-70
2021/04/26 01:44:57;;;;;;;;;;;;;;;19.94;42.04;101871.50;2084539;28;3731;-71
2021/04/26 01:45:58;;;;;;;;;;;;;;;19.94;42.05;101867.81;2085313;28;3902;-71
2021/04/26 01:46:59;;;;;;;;;;;;;;;19.94;42.13;101857.28;2084709;28;3998;-70
2021/04/26 01:48:00;;;;;;;;;;;;;;;19.93;42.04;101866.97;2084586;28;4022;-71
2021/04/26 01:49:06;;;;;;;;;;;;;;;19.93;42.06;101864.16;2085002;28;3978;-70
2021/04/26 01:50:07;;;;;;;;;;;;;;;19.93;42.10;101863.28;2084874;28;4005;-70
2021/04/26 01:51:08;;;;;;;;;;;;;;;19.94;42.14;101874.34;2084811;28;3927;-70
2021/04/26 01:52:08;;;;;;;;;;;;;;;19.93;42.10;101872.66;2085043;28;3850;-70
2021/04/26 01:53:09;;;;;;;;;;;;;;;19.94;42.17;101874.34;2085100;28;3898;-70
2021/04/26 01:54:10;;;;;;;;;;;;;;;19.94;42.01;101864.97;2085015;28;4139;-70
2021/04/26 01:55:11;;;;;;;;;;;;;;;19.94;42.03;101868.66;2085271;28;4077;-70
2021/04/26 01:56:12;;;;;;;;;;;;;;;19.94;42.08;101868.66;2084936;28;4007;-70
2021/04/26 01:57:12;;;;;;;;;;;;;;;19.94;42.03;101862.97;2085117;28;3972;-70
2021/04/26 01:58:13;;;;;;;;;;;;;;;19.95;42.08;101869.50;2084783;28;3940;-70
2021/04/26 01:59:14;;;;;;;;;;;;;;;19.94;42.15;101871.50;2084634;28;4231;-70
2021/04/26 02:00:15;;;;;;;;;;;;;;;19.94;42.11;101859.31;2084329;28;3839;-70
2021/04/26 02:01:15;;;;;;;;;;;;;;;19.93;42.07;101858.47;2085146;28;3848;-70
2021/04/26 02:02:16;;;;;;;;;;;;;;;19.93;42.08;101864.16;2084983;28;3905;-70
2021/04/26 02:03:17;;;;;;;;;;;;;;;19.93;42.13;101858.47;2084482;28;3956;-70
2021/04/26 02:04:19;;;;;;;;;;;;;;;19.93;42.12;101864.16;2085023;28;3832;-70
2021/04/26 02:05:20;;;;;;;;;;;;;;;19.93;42.13;101861.31;2084692;28;3990;-70
2021/04/26 02:06:21;;;;;;;;;;;;;;;19.94;42.09;101860.13;2085057;28;3954;-70
2021/04/26 02:07:22;;;;;;;;;;;;;;;19.94;42.16;101868.66;2084944;28;3896;-70
2021/04/26 02:08:22;;;;;;;;;;;;;;;19.93;42.09;101858.47;2085133;28;4145;-70
2021/04/26 02:09:23;;;;;;;;;;;;;;;19.94;42.18;101856.47;2084641;28;4020;-70
2021/04/26 02:10:24;;;;;;;;;;;;;;;19.93;42.16;101864.16;2085058;28;3960;-70
2021/04/26 02:11:25;;;;;;;;;;;;;;;19.93;42.07;101854.75;2084585;28;3954;-71
2021/04/26 02:12:25;;;;;;;;;;;;;;;19.93;42.14;101855.63;2084975;28;3859;-70
2021/04/26 02:13:26;;;;;;;;;;;;;;;19.94;42.25;101864.97;2084903;28;3965;-70
2021/04/26 02:14:28;;;;;;;;;;;;;;;19.93;42.03;101857.59;2084999;28;3997;-69
2021/04/26 02:15:28;;;;;;;;;;;;;;;19.94;42.09;101865.81;2085324;28;3987;-70
2021/04/26 02:16:30;;;;;;;;;;;;;;;19.94;42.05;101853.63;2084713;28;3948;-69
2021/04/26 02:17:31;;;;;;;;;;;;;;;19.94;42.13;101865.81;2085204;28;3994;-69
2021/04/26 02:18:32;;;;;;;;;;;;;;;19.93;42.08;101852.78;2084217;28;3772;-71
2021/04/26 02:19:33;;;;;;;;;;;;;;;19.94;42.27;101856.47;2086535;28;5224;-70
2021/04/26 02:20:34;;;;;;;;;;;;;;;19.92;42.21;101855.94;2086274;28;3993;-72
2021/04/26 02:21:35;;;;;;;;;;;;;;;19.93;42.24;101855.63;2086498;28;3955;-72
2021/04/26 02:22:35;;;;;;;;;;;;;;;19.93;42.18;101855.63;2085409;28;3796;-72
2021/04/26 02:23:36;;;;;;;;;;;;;;;19.94;42.17;101853.63;2085797;28;3859;-72
2021/04/26 02:24:37;;;;;;;;;;;;;;;19.93;42.23;101860.44;2086499;28;4035;-71
2021/04/26 02:25:37;;;;;;;;;;;;;;;19.94;42.30;101856.47;2086254;28;3710;-72
2021/04/26 02:26:38;;;;;;;;;;;;;;;19.93;42.23;101851.91;2086446;28;3821;-71
2021/04/26 02:27:39;;;;;;;;;;;;;;;19.92;42.24;101851.09;2085943;28;3756;-71
2021/04/26 02:28:40;;;;;;;;;;;;;;;19.93;42.19;101851.91;2086606;28;3922;-72
2021/04/26 02:29:40;;;;;;;;;;;;;;;19.93;42.16;101855.63;2086547;28;3805;-74
2021/04/26 02:30:41;;;;;;;;;;;;;;;19.93;42.22;101854.75;2086055;28;3974;-74
2021/04/26 02:31:42;;;;;;;;;;;;;;;19.93;42.40;101855.63;2086938;28;4002;-74
2021/04/26 02:32:43;;;;;;;;;;;;;;;19.92;42.26;101853.94;2086224;28;4001;-74
2021/04/26 02:33:44;;;;;;;;;;;;;;;19.93;42.13;101858.47;2086333;28;4029;-74
2021/04/26 02:34:44;;;;;;;;;;;;;;;19.92;42.25;101851.09;2086616;28;3846;-75
2021/04/26 02:35:45;;;;;;;;;;;;;;;19.92;42.36;101856.75;2085562;28;4021;-74
2021/04/26 02:36:46;;;;;;;;;;;;;;;19.93;42.29;101851.91;2086266;28;3867;-75
2021/04/26 02:37:47;;;;;;;;;;;;;;;19.93;42.16;101861.31;2086339;28;4018;-75
2021/04/26 02:38:47;;;;;;;;;;;;;;;19.91;42.31;101849.41;2086503;28;3896;-75
2021/04/26 02:39:48;;;;;;;;;;;;;;;19.93;42.19;101849.06;2086677;28;5262;-73
2021/04/26 02:40:49;;;;;;;;;;;;;;;19.93;42.28;101855.63;2085987;28;3994;-73
2021/04/26 02:41:50;;;;;;;;;;;;;;;19.93;42.24;101849.06;2086498;28;4011;-73
2021/04/26 02:42:50;;;;;;;;;;;;;;;19.93;42.27;101847.09;2085993;28;4004;-72
2021/04/26 02:43:51;;;;;;;;;;;;;;;19.91;42.22;101852.25;2085927;28;4035;-72
2021/04/26 02:44:52;;;;;;;;;;;;;;;19.91;42.29;101852.25;2085785;28;4149;-73
2021/04/26 02:45:53;;;;;;;;;;;;;;;19.92;42.29;101856.75;2077830;28;4014;-72
2021/04/26 02:46:54;;;;;;;;;;;;;;;19.91;42.28;101857.94;2077936;28;4025;-73
2021/04/26 02:47:55;;;;;;;;;;;;;;;19.91;42.23;101857.09;2086265;28;4057;-73
2021/04/26 02:48:56;;;;;;;;;;;;;;;19.91;42.31;101855.09;2085748;28;3890;-73
2021/04/26 02:49:56;;;;;;;;;;;;;;;19.91;42.27;101857.94;2086122;28;3978;-73
2021/04/26 02:50:57;;;;;;;;;;;;;;;19.91;42.31;101863.63;2086094;28;4000;-73
2021/04/26 02:51:58;;;;;;;;;;;;;;;19.91;42.30;101863.63;2086323;28;4305;-73
2021/04/26 02:52:59;;;;;;;;;;;;;;;19.91;42.28;101863.63;2085851;28;3868;-72
2021/04/26 02:54:01;;;;;;;;;;;;;;;19.92;42.26;101867.28;2086284;28;4215;-73
2021/04/26 02:55:02;;;;;;;;;;;;;;;19.91;42.28;101863.63;2086000;28;3867;-72
2021/04/26 02:56:02;;;;;;;;;;;;;;;19.91;42.29;101863.63;2086159;28;3984;-73
2021/04/26 02:57:03;;;;;;;;;;;;;;;19.91;42.31;101855.09;2086446;28;3983;-73
2021/04/26 02:58:04;;;;;;;;;;;;;;;19.91;42.33;101852.25;2085780;28;3841;-73
2021/04/26 02:59:05;;;;;;;;;;;;;;;19.90;42.24;101856.22;2085540;28;3868;-73
2021/04/26 03:00:05;;;;;;;;;;;;;;;19.90;42.30;101847.72;2086182;28;4076;-73
2021/04/26 03:01:06;;;;;;;;;;;;;;;19.91;42.21;101854.25;2085154;28;4899;-73
2021/04/26 03:02:07;;;;;;;;;;;;;;;19.91;42.35;101857.09;2086202;28;3982;-72
2021/04/26 03:03:08;;;;;;;;;;;;;;;19.91;42.18;101857.09;2085930;28;4056;-73
2021/04/26 03:04:09;;;;;;;;;;;;;;;19.90;42.22;101850.56;2086257;28;4066;-72
2021/04/26 03:05:09;;;;;;;;;;;;;;;19.91;42.33;101857.09;2086448;28;3998;-72
2021/04/26 03:06:10;;;;;;;;;;;;;;;19.91;42.24;101846.56;2086255;28;4031;-72
2021/04/26 03:07:11;;;;;;;;;;;;;;;19.91;42.34;101848.59;2086153;28;4160;-72
2021/04/26 03:08:12;;;;;;;;;;;;;;;19.91;42.37;101855.09;2085467;28;3998;-72
2021/04/26 03:09:12;;;;;;;;;;;;;;;19.91;42.32;101857.94;2086114;28;4079;-73
2021/04/26 03:10:13;;;;;;;;;;;;;;;19.91;42.17;101852.25;2086218;28;3852;-73
2021/04/26 03:11:14;;;;;;;;;;;;;;;19.91;42.30;101851.41;2086087;28;4172;-72
2021/04/26 03:12:14;;;;;;;;;;;;;;;19.90;42.36;101844.88;2084812;28;4149;-73
2021/04/26 03:13:15;;;;;;;;;;;;;;;19.90;42.09;101844.88;2086199;28;4063;-73
2021/04/26 03:14:16;;;;;;;;;;;;;;;19.91;42.37;101852.25;2085780;28;4000;-72
2021/04/26 03:15:17;;;;;;;;;;;;;;;19.91;42.34;101849.41;2086082;28;4132;-73
2021/04/26 03:16:17;;;;;;;;;;;;;;;19.90;42.28;101853.41;2085455;28;3844;-71
2021/04/26 03:17:18;;;;;;;;;;;;;;;19.90;42.38;101850.56;2086277;28;3826;-73
2021/04/26 03:18:19;;;;;;;;;;;;;;;19.92;42.27;101853.09;2086171;28;3947;-73
2021/04/26 03:19:20;;;;;;;;;;;;;;;19.91;42.28;101857.09;2086025;28;4008;-73
2021/04/26 03:20:21;;;;;;;;;;;;;;;19.91;42.35;101855.09;2084748;28;5058;-73
2021/04/26 03:21:22;;;;;;;;;;;;;;;19.92;42.38;101859.59;2086076;28;3818;-72
2021/04/26 03:22:22;;;;;;;;;;;;;;;19.91;42.39;101857.94;2085833;28;4899;-72
2021/04/26 03:23:23;;;;;;;;;;;;;;;19.91;42.35;101857.09;2086275;28;3832;-72
2021/04/26 03:24:24;;;;;;;;;;;;;;;19.91;42.39;101859.94;2086218;28;3986;-72
2021/04/26 03:25:25;;;;;;;;;;;;;;;19.91;42.34;101862.78;2085693;28;3863;-72
2021/04/26 03:26:25;;;;;;;;;;;;;;;19.91;42.25;101857.94;2085868;28;4141;-71
2021/04/26 03:27:26;;;;;;;;;;;;;;;19.90;42.39;101850.56;2086052;28;4049;-71
2021/04/26 03:28:27;;;;;;;;;;;;;;;19.91;42.44;101857.94;2085727;28;4052;-72
2021/04/26 03:29:28;;;;;;;;;;;;;;;19.91;42.54;101852.25;2085458;28;3835;-72
2021/04/26 03:30:29;;;;;;;;;;;;;;;19.90;42.45;101856.22;2085220;28;4104;-72
2021/04/26 03:31:29;;;;;;;;;;;;;;;19.91;42.48;101857.09;2085525;28;3978;-72
2021/04/26 03:32:30;;;;;;;;;;;;;;;19.91;42.48;101857.94;2085502;28;4238;-72
2021/04/26 03:33:31;;;;;;;;;;;;;;;19.91;42.49;101860.78;2076880;28;4007;-72
2021/04/26 03:34:32;;;;;;;;;;;;;;;19.91;42.49;101855.09;2077475;28;3689;-72
2021/04/26 03:35:32;;;;;;;;;;;;;;;19.91;42.50;101855.09;2085882;28;4004;-73
2021/04/26 03:36:33;;;;;;;;;;;;;;;19.92;42.45;101853.94;2085874;28;3786;-74
2021/04/26 03:37:34;;;;;;;;;;;;;;;19.91;42.48;101857.94;2085168;28;3786;-74
2021/04/26 03:38:35;;;;;;;;;;;;;;;19.91;42.52;101851.41;2085480;28;3996;-70
2021/04/26 03:39:35;;;;;;;;;;;;;;;19.92;42.32;101855.94;2086042;28;3824;-71
2021/04/26 03:40:36;;;;;;;;;;;;;;;19.90;42.38;101850.56;2086163;28;4151;-71
2021/04/26 03:41:37;;;;;;;;;;;;;;;19.91;42.35;101852.25;2085555;28;4026;-72
2021/04/26 03:42:37;;;;;;;;;;;;;;;19.91;42.53;101857.94;2085831;28;3971;-71
2021/04/26 03:43:38;;;;;;;;;;;;;;;19.90;42.62;101850.56;2085049;28;3783;-71
2021/04/26 03:44:39;;;;;;;;;;;;;;;19.91;42.77;101852.25;2085074;28;3989;-71
2021/04/26 03:45:40;;;;;;;;;;;;;;;19.92;42.51;101859.59;2085965;28;3964;-71
2021/04/26 03:46:40;;;;;;;;;;;;;;;19.90;42.52;101856.22;2085254;28;3907;-71
2021/04/26 03:47:41;;;;;;;;;;;;;;;19.91;42.58;101857.94;2085146;28;4885;-71
2021/04/26 03:48:42;;;;;;;;;;;;;;;19.91;42.66;101852.25;2085665;28;3877;-70
2021/04/26 03:49:42;;;;;;;;;;;;;;;19.91;42.65;101852.25;2085479;28;5207;-71
2021/04/26 03:50:43;;;;;;;;;;;;;;;19.90;42.55;101856.22;2085820;28;3839;-72
2021/04/26 03:51:44;;;;;;;;;;;;;;;19.90;42.66;101856.22;2084730;28;4023;-71
2021/04/26 03:52:45;;;;;;;;;;;;;;;19.91;42.71;101851.41;2085932;28;4014;-72
2021/04/26 03:53:45;;;;;;;;;;;;;;;19.91;42.67;101857.94;2085522;28;3992;-72
2021/04/26 03:54:47;;;;;;;;;;;;;;;19.92;42.88;101859.59;2084860;28;3850;-71
2021/04/26 03:55:47;;;;;;;;;;;;;;;19.91;42.91;101855.09;2085507;28;3848;-70
2021/04/26 03:56:48;;;;;;;;;;;;;;;19.92;42.70;101853.09;2086472;28;4100;-70
2021/04/26 03:57:49;;;;;;;;;;;;;;;19.92;42.75;101856.75;2085846;28;4163;-70
2021/04/26 03:58:49;;;;;;;;;;;;;;;19.91;43.08;101857.09;2085653;28;4224;-71
2021/04/26 03:59:50;;;;;;;;;;;;;;;19.91;42.88;101854.25;2085290;28;3837;-71
2021/04/26 04:00:51;;;;;;;;;;;;;;;19.91;42.91;101855.09;2085682;28;4004;-70
2021/04/26 04:01:52;;;;;;;;;;;;;;;19.91;42.95;101857.09;2085616;28;3926;-71
2021/04/26 04:02:52;;;;;;;;;;;;;;;19.90;42.98;101859.06;2085576;28;3827;-71
2021/04/26 04:03:53;;;;;;;;;;;;;;;19.91;43.00;101857.09;2084926;28;3896;-71
2021/04/26 04:04:55;;;;;;;;;;;;;;;19.91;42.77;101851.41;2085330;28;3909;-71
2021/04/26 04:05:56;;;;;;;;;;;;;;;19.91;42.95;101852.25;2085651;28;4083;-71
2021/04/26 04:06:59;;;;;;;;;;;;;;;19.92;43.18;101856.75;2085903;28;4121;-70
2021/04/26 04:07:59;;;;;;;;;;;;;;;19.91;43.08;101852.25;2085336;28;5092;-71
2021/04/26 04:09:00;;;;;;;;;;;;;;;19.91;43.12;101852.25;2085820;28;4031;-71
2021/04/26 04:10:02;;;;;;;;;;;;;;;19.91;43.00;101860.78;2086015;28;3984;-70
2021/04/26 04:11:02;;;;;;;;;;;;;;;19.91;42.88;101857.09;2084911;28;4017;-71
2021/04/26 04:12:03;;;;;;;;;;;;;;;19.91;42.99;101854.25;2085239;28;3868;-70
2021/04/26 04:13:04;;;;;;;;;;;;;;;19.91;42.98;101857.09;2085584;28;3830;-71
2021/04/26 04:14:05;;;;;;;;;;;;;;;19.91;42.92;101855.09;2085318;28;4058;-70
2021/04/26 04:15:05;;;;;;;;;;;;;;;19.91;42.90;101857.09;2085577;28;3968;-70
2021/04/26 04:16:06;;;;;;;;;;;;;;;19.93;42.90;101861.31;2085137;28;4043;-71
2021/04/26 04:17:07;;;;;;;;;;;;;;;19.91;43.08;101857.94;2085778;28;3967;-70
2021/04/26 04:18:08;;;;;;;;;;;;;;;19.92;43.08;101856.75;2085319;28;3824;-70
2021/04/26 04:19:08;;;;;;;;;;;;;;;19.93;42.95;101860.44;2085576;28;3953;-70
2021/04/26 04:20:09;;;;;;;;;;;;;;;19.93;43.03;101849.94;2085809;28;4200;-70
2021/04/26 04:21:10;;;;;;;;;;;;;;;19.93;43.12;101851.91;2085135;28;3833;-70
2021/04/26 04:22:11;;;;;;;;;;;;;;;19.91;43.18;101851.41;2085503;28;3979;-71
2021/04/26 04:23:11;;;;;;;;;;;;;;;19.92;43.12;101851.09;2085693;28;3870;-70
2021/04/26 04:24:14;;;;;;;;;;;;;;;19.93;43.09;101849.94;2085509;28;4045;-70
2021/04/26 04:25:15;;;;;;;;;;;;;;;19.91;43.16;101852.25;2085638;28;4019;-70
2021/04/26 04:26:16;;;;;;;;;;;;;;;19.93;43.27;101855.63;2085357;28;4024;-71
2021/04/26 04:27:17;;;;;;;;;;;;;;;19.93;43.31;101849.06;2085438;28;5225;-70
2021/04/26 04:28:17;;;;;;;;;;;;;;;19.93;43.41;101847.09;2085580;28;4007;-71
2021/04/26 04:29:18;;;;;;;;;;;;;;;19.93;43.36;101855.63;2085175;28;3974;-71
2021/04/26 04:30:19;;;;;;;;;;;;;;;19.93;43.38;101849.94;2085398;28;4048;-71
2021/04/26 04:31:19;;;;;;;;;;;;;;;19.94;43.29;101859.31;2085358;28;4005;-71
2021/04/26 04:32:20;;;;;;;;;;;;;;;19.93;43.40;101855.63;2085351;28;5069;-70
2021/04/26 04:33:21;;;;;;;;;;;;;;;19.93;43.49;101855.63;2085600;28;3993;-70
2021/04/26 04:34:22;;;;;;;;;;;;;;;19.93;43.36;101852.78;2084510;28;3842;-71
2021/04/26 04:35:22;;;;;;;;;;;;;;;19.93;43.41;101861.31;2084623;28;3855;-70
2021/04/26 04:36:23;;;;;;;;;;;;;;;19.94;43.39;101856.47;2085685;28;4101;-70
2021/04/26 04:37:24;;;;;;;;;;;;;;;19.94;43.52;101851.63;2084491;28;4026;-70
2021/04/26 04:38:25;;;;;;;;;;;;;;;19.94;43.45;101857.28;2083993;28;5068;-72
2021/04/26 04:39:26;;;;;;;;;;;;;;;19.94;43.72;101850.78;2084569;28;4090;-70
2021/04/26 04:40:27;;;;;;;;;;;;;;;19.90;43.71;101844.88;2085356;28;4023;-71
2021/04/26 04:41:28;;;;;;;;;;;;;;;19.95;43.63;101858.13;2085107;28;4016;-71
2021/04/26 04:42:28;;;;;;;;;;;;;;;19.94;43.70;101854.44;2085006;28;3822;-71
2021/04/26 04:43:29;;;;;;;;;;;;;;;19.94;43.76;101857.28;2084717;28;3990;-71
2021/04/26 04:44:30;;;;;;;;;;;;;;;19.95;43.91;101855.28;2085306;28;5150;-71
2021/04/26 04:45:31;;;;;;;;;;;;;;;19.95;43.83;101855.28;2085142;28;5156;-70
2021/04/26 04:46:31;;;;;;;;;;;;;;;19.94;43.80;101851.63;2084860;28;4127;-71
2021/04/26 04:47:32;;;;;;;;;;;;;;;19.99;44.61;101862.84;2084327;28;5055;-75
2021/04/26 04:48:33;;;;;;;;;;;;;;;19.96;44.19;101854.97;2084853;28;3957;-71
2021/04/26 04:49:34;;;;;;;;;;;;;;;19.95;44.07;101853.28;2085660;28;3818;-70
2021/04/26 04:50:35;;;;;;;;;;;;;;;19.94;43.99;101848.78;2085063;28;3968;-70
2021/04/26 04:51:36;;;;;;;;;;;;;;;19.95;43.94;101852.44;2084929;28;3852;-71
2021/04/26 04:52:36;;;;;;;;;;;;;;;19.94;44.12;101842.25;2085346;28;3954;-72
2021/04/26 04:53:37;;;;;;;;;;;;;;;19.93;44.03;101852.78;2085247;28;3984;-71
2021/04/26 04:54:38;;;;;;;;;;;;;;;19.94;44.11;101845.94;2085532;28;4147;-70
2021/04/26 04:55:39;;;;;;;;;;;;;;;19.94;44.08;101845.94;2084707;28;3944;-69
2021/04/26 04:56:39;;;;;;;;;;;;;;;19.94;43.97;101845.09;2085004;28;4087;-76
2021/04/26 04:57:40;;;;;;;;;;;;;;;19.93;43.99;101844.25;2085004;28;3973;-70
2021/04/26 04:58:41;;;;;;;;;;;;;;;19.92;44.12;101848.25;2084843;28;4487;-71
2021/04/26 04:59:42;;;;;;;;;;;;;;;19.93;44.08;101844.25;2085094;28;3926;-73
2021/04/26 05:00:43;;;;;;;;;;;;;;;19.94;44.15;101847.94;2084579;28;3851;-71
2021/04/26 05:01:43;;;;;;;;;;;;;;;19.94;44.19;101845.09;2085229;28;4250;-72
2021/04/26 05:02:44;;;;;;;;;;;;;;;19.93;44.17;101846.25;2084967;28;3833;-74
2021/04/26 05:03:45;;;;;;;;;;;;;;;19.86;42.84;101849.53;2084753;28;4008;-74
2021/04/26 05:04:46;;;;;;;;;;;;;;;19.64;40.82;101852.31;2083698;28;5277;-76
2021/04/26 05:05:46;;;;;;;;;;;;;;;19.49;40.86;101844.94;2083058;28;4017;-79
2021/04/26 05:06:47;;;;;;;;;;;;;;;19.43;41.09;101849.91;2085262;28;4016;-81
2021/04/26 05:07:48;;;;;;;;;;;;;;;19.40;40.25;101859.06;2083435;28;3991;-81
2021/04/26 05:08:49;;;;;;;;;;;;;;;19.35;39.57;101854.34;2085453;28;4001;-83
2021/04/26 05:09:50;;;;;;;;;;;;;;;19.31;39.19;101846.78;2085041;28;4007;-76
2021/04/26 05:10:50;;;;;;;;;;;;;;;19.26;38.91;101846.88;2084451;28;4018;-87
2021/04/26 05:11:51;;;;;;;;;;;;;;;19.29;39.07;101843.41;2083907;28;3827;-77
2021/04/26 05:12:52;;;;;;;;;;;;;;;19.38;39.58;101847.19;2084719;28;3834;-80
2021/04/26 05:13:53;;;;;;;;;;;;;;;19.43;39.97;101852.75;2084302;28;4040;-78
2021/04/26 05:14:54;;;;;;;;;;;;;;;19.48;40.21;101851.78;2084711;28;4067;-78
2021/04/26 05:15:55;;;;;;;;;;;;;;;19.46;39.59;101851.25;2085301;28;3982;-82
2021/04/26 05:16:56;;;;;;;;;;;;;;;19.42;39.62;101845.38;2084382;28;4046;-76